Time;durP1;ratioP1;P1;durP2;ratioP2;P2;SDS_P1;SDS_P2;PMS_P1;PMS_P2;Temp;Humidity;BMP_temperature;BMP_pressure;BME280_temperature;BME280_humidity;BME280_pressure;Samples;Min_cycle;Max_cycle;Signal;HPM_P1;HPM_P2
2022/01/03 00:01:14;;;;;;;8.60;6.82;;;;;;;-7.24;77.51;100127.94;5071468;28;20085;-57
2022/01/03 00:03:40;;;;;;;9.73;6.25;;;;;;;-7.33;77.69;100097.31;5071416;28;20048;-60
2022/01/03 00:06:07;;;;;;;10.45;6.65;;;;;;;-7.29;77.62;100098.03;5071187;28;20042;-59
2022/01/03 00:08:33;;;;;;;9.37;5.93;;;;;;;-7.19;77.60;100107.09;5071928;28;20044;-57
2022/01/03 00:10:59;;;;;;;9.20;6.27;;;;;;;-7.18;77.64;100104.44;5075591;28;20044;-55
2022/01/03 00:13:25;;;;;;;10.35;5.95;;;;;;;-7.24;78.03;100106.41;5075166;28;20484;-61
2022/01/03 00:15:55;;;;;;;11.77;6.80;;;;;;;-7.52;78.39;100058.50;5073928;28;20119;-59
2022/01/03 00:18:23;;;;;;;11.70;6.53;;;;;;;-7.29;78.62;100096.28;5075753;28;20036;-60
2022/01/03 00:20:59;;;;;;;8.38;6.18;;;;;;;-7.27;79.18;100091.88;5075302;28;20093;-59
2022/01/03 00:23:32;;;;;;;9.40;6.03;;;;;;;-7.57;78.87;100057.81;5075172;28;20135;-57
2022/01/03 00:26:00;;;;;;;10.05;6.28;;;;;;;-7.11;78.45;100106.75;5075545;28;20114;-54
2022/01/03 00:28:35;;;;;;;9.07;5.97;;;;;;;-7.22;78.77;100081.34;5075253;28;20041;-55
2022/01/03 00:31:02;;;;;;;9.63;5.47;;;;;;;-7.09;79.20;100102.34;5075383;28;20086;-58
2022/01/03 00:33:28;;;;;;;7.32;5.20;;;;;;;-7.09;78.64;100086.81;5075345;28;20052;-58
2022/01/03 00:35:59;;;;;;;9.77;5.80;;;;;;;-7.06;78.65;100084.91;5074987;28;20040;-58
2022/01/03 00:38:30;;;;;;;11.30;7.55;;;;;;;-7.02;78.38;100070.09;5075230;28;20042;-56
2022/01/03 00:40:56;;;;;;;7.88;5.53;;;;;;;-7.25;77.39;100032.28;5075030;28;20060;-60
2022/01/03 00:43:24;;;;;;;7.80;5.55;;;;;;;-7.14;78.10;100061.13;5074991;28;20135;-57
2022/01/03 00:45:53;;;;;;;9.10;6.18;;;;;;;-7.04;77.77;100069.31;5074713;28;20052;-62
2022/01/03 00:48:19;;;;;;;7.70;5.43;;;;;;;-6.98;77.83;100076.81;5074517;28;20076;-60
2022/01/03 00:50:44;;;;;;;8.67;5.50;;;;;;;-7.11;77.30;100057.56;5074699;28;20055;-60
2022/01/03 00:53:10;;;;;;;8.03;5.27;;;;;;;-7.17;77.30;100061.28;5074947;28;20032;-56
2022/01/03 00:55:36;;;;;;;8.53;5.97;;;;;;;-7.23;78.60;100067.56;5073885;28;20050;-59
2022/01/03 00:58:17;;;;;;;8.20;5.47;;;;;;;-7.24;79.02;100068.44;5074991;28;20037;-60
2022/01/03 01:00:45;;;;;;;8.32;5.85;;;;;;;-7.25;79.10;100059.00;5074367;28;20086;-59
2022/01/03 01:03:18;;;;;;;10.95;6.07;;;;;;;-7.27;78.58;100058.22;5074455;28;20039;-59
2022/01/03 01:05:50;;;;;;;6.85;4.50;;;;;;;-7.29;78.76;100052.28;5074429;28;20094;-59
2022/01/03 01:08:23;;;;;;;8.40;5.50;;;;;;;-7.33;78.32;100026.63;5072861;28;20048;-57
2022/01/03 01:10:52;;;;;;;8.95;5.18;;;;;;;-7.34;77.82;100030.97;5075251;28;20040;-60
2022/01/03 01:13:18;;;;;;;;;;;;;;;-7.31;78.10;100046.34;5074533;28;20126;-60
2022/01/03 01:15:43;;;;;;;6.90;4.97;;;;;;;-7.43;78.61;100035.72;5074703;28;20419;-57
2022/01/03 01:18:09;;;;;;;7.57;5.80;;;;;;;-7.49;78.01;100031.66;5074469;28;20037;-57
2022/01/03 01:20:36;;;;;;;8.17;5.20;;;;;;;-7.46;78.59;100025.50;5073451;28;20035;-59
2022/01/03 01:23:06;;;;;;;6.30;4.85;;;;;;;-7.32;77.58;100033.47;5074233;28;20039;-58
2022/01/03 01:28:08;;;;;;;6.38;5.22;;;;;;;-7.50;78.20;100024.81;5074069;28;20042;-61
2022/01/03 01:30:35;;;;;;;4.70;3.92;;;;;;;-7.43;78.00;100026.22;5074031;28;20377;-61
2022/01/03 01:33:01;;;;;;;7.28;4.97;;;;;;;-7.40;78.19;100015.72;5074147;28;20089;-60
2022/01/03 01:35:35;;;;;;;7.20;4.18;;;;;;;-7.44;78.26;100000.41;5073745;28;20036;-58
2022/01/03 01:38:02;;;;;;;6.60;4.38;;;;;;;-7.39;78.05;100012.22;5073884;28;20529;-56
2022/01/03 01:40:28;;;;;;;8.40;3.92;;;;;;;-7.42;77.50;100004.59;5074026;28;20046;-59
2022/01/03 01:42:55;;;;;;;6.00;4.40;;;;;;;-7.48;77.47;99991.13;5073736;28;20041;-61
2022/01/03 01:45:27;;;;;;;5.85;3.95;;;;;;;-7.46;77.72;99990.13;5073312;28;20036;-62
2022/01/03 01:47:58;;;;;;;6.10;3.20;;;;;;;-7.73;77.45;99945.66;5073505;28;20047;-59
2022/01/03 01:50:29;;;;;;;7.50;5.40;;;;;;;-7.49;77.05;99985.09;5073302;28;20127;-60
2022/01/03 01:52:56;;;;;;;6.90;4.68;;;;;;;-7.50;76.51;99980.84;5073153;28;20508;-60
2022/01/03 01:55:22;;;;;;;4.13;3.72;;;;;;;-7.51;77.00;99971.41;5073478;28;20400;-57
2022/01/03 01:57:55;;;;;;;6.17;4.57;;;;;;;-7.46;77.11;99995.31;5073422;28;20036;-59
2022/01/03 02:00:21;;;;;;;5.40;4.90;;;;;;;-7.57;77.16;99979.41;5073695;28;20115;-61
2022/01/03 02:02:59;;;;;;;5.55;3.55;;;;;;;-7.46;77.11;99994.47;5073876;28;20451;-59
2022/01/03 02:05:37;;;;;;;3.80;3.40;;;;;;;-7.54;77.21;99968.94;5073393;28;20408;-59
2022/01/03 02:08:14;;;;;;;4.03;3.55;;;;;;;-7.39;76.95;99981.19;5073754;28;20037;-60
2022/01/03 02:11:12;;;;;;;5.38;3.90;;;;;;;-7.53;76.61;99948.16;5073964;28;20546;-60
2022/01/03 02:13:39;;;;;;;3.70;3.40;;;;;;;-7.43;76.51;99968.47;5073457;28;20048;-61
2022/01/03 02:16:05;;;;;;;6.22;3.63;;;;;;;-7.71;76.80;99922.31;5073454;28;20072;-61
2022/01/03 02:18:32;;;;;;;3.97;3.57;;;;;;;-7.43;76.92;99958.97;5073021;28;20507;-61
2022/01/03 02:20:58;;;;;;;5.28;4.78;;;;;;;-7.35;76.89;99959.44;5073039;28;20033;-62
2022/01/03 02:23:24;;;;;;;4.25;3.85;;;;;;;-7.36;77.03;99955.19;5072921;28;20040;-61
2022/01/03 02:25:50;;;;;;;4.97;4.37;;;;;;;-7.44;76.78;99934.00;5072819;28;20110;-57
2022/01/03 02:28:20;;;;;;;15.75;3.50;;;;;;;-7.35;77.20;99945.69;5072623;28;20032;-58
2022/01/03 02:30:46;;;;;;;4.05;3.60;;;;;;;-7.46;77.13;99935.81;5073033;28;20040;-59
2022/01/03 02:33:12;;;;;;;4.95;3.97;;;;;;;-7.36;77.04;99942.25;5072962;28;20582;-60
2022/01/03 02:35:41;;;;;;;5.23;3.37;;;;;;;-7.37;77.71;99932.81;5072588;28;20159;-56
2022/01/03 02:38:07;;;;;;;4.75;3.67;;;;;;;-7.34;76.91;99935.25;5072678;28;20036;-60
2022/01/03 02:40:33;;;;;;;5.35;3.38;;;;;;;-7.24;77.35;99926.16;5073903;28;20052;-59
2022/01/03 02:42:59;;;;;;;4.43;3.07;;;;;;;-7.31;77.49;99900.66;5074923;28;20574;-55
2022/01/03 02:45:26;;;;;;;5.40;3.50;;;;;;;-7.29;76.76;99910.00;5072215;28;20070;-57
2022/01/03 02:47:55;;;;;;;5.28;3.75;;;;;;;-7.25;76.99;99906.38;5072368;28;20492;-60
2022/01/03 02:50:22;;;;;;;3.83;3.17;;;;;;;-7.18;76.94;99900.00;5072308;28;20045;-57
2022/01/03 02:52:49;;;;;;;4.47;3.80;;;;;;;-7.22;77.08;99895.91;5072506;28;20051;-59
2022/01/03 02:55:16;;;;;;;3.72;3.38;;;;;;;-7.23;76.78;99896.81;5072185;28;20039;-52
2022/01/03 02:57:44;;;;;;;5.53;3.47;;;;;;;-7.18;77.49;99888.81;5072862;28;20064;-59
2022/01/03 03:00:14;;;;;;;4.72;2.80;;;;;;;-7.06;76.71;99887.41;5074772;28;20082;-58
2022/01/03 03:02:40;;;;;;;3.10;2.80;;;;;;;-7.03;76.77;99885.50;5076417;28;20512;-59
2022/01/03 03:05:07;;;;;;;3.70;3.37;;;;;;;-7.03;76.41;99885.50;5074832;28;20064;-59
2022/01/03 03:07:34;;;;;;;3.78;3.30;;;;;;;-7.20;76.54;99851.84;5071966;28;20038;-57
2022/01/03 03:10:00;;;;;;;3.42;3.13;;;;;;;-7.04;76.58;99882.97;5072251;28;20115;-60
2022/01/03 03:12:27;;;;;;;4.15;2.85;;;;;;;-7.02;76.85;99894.94;5072541;28;20086;-56
2022/01/03 03:14:53;;;;;;;4.80;3.88;;;;;;;-7.27;77.01;99845.25;5072092;28;20066;-55
2022/01/03 03:17:19;;;;;;;5.90;3.50;;;;;;;-7.08;76.72;99871.09;5071924;28;20041;-53
2022/01/03 03:19:54;;;;;;;3.13;2.90;;;;;;;-6.99;76.31;99875.84;5071825;28;20547;-60
2022/01/03 03:22:19;;;;;;;4.95;3.38;;;;;;;-6.97;76.32;99866.25;5072142;28;20044;-59
2022/01/03 03:24:45;;;;;;;3.63;3.20;;;;;;;-7.04;76.27;99863.13;5072464;28;20033;-55
2022/01/03 03:27:12;;;;;;;3.20;2.73;;;;;;;-7.01;76.12;99864.72;5072695;28;20618;-60
2022/01/03 03:29:50;;;;;;;3.70;3.30;;;;;;;-7.03;76.18;99848.44;5071698;28;20079;-57
2022/01/03 03:32:16;;;;;;;3.40;2.97;;;;;;;-7.07;76.03;99841.72;5071691;28;20032;-59
2022/01/03 03:34:42;;;;;;;4.45;3.38;;;;;;;-6.89;76.21;99861.56;5071375;28;20068;-58
2022/01/03 03:37:09;;;;;;;3.60;3.30;;;;;;;-6.97;76.21;99848.13;5071750;28;20071;-56
2022/01/03 03:39:36;;;;;;;3.58;2.90;;;;;;;-6.96;76.03;99857.56;5071455;28;20039;-55
2022/01/03 03:42:04;;;;;;;3.17;2.88;;;;;;;-6.97;76.32;99869.66;5072137;28;20458;-59
2022/01/03 03:44:30;;;;;;;3.40;3.10;;;;;;;-6.91;76.86;99866.81;5074193;28;20044;-57
2022/01/03 03:46:57;;;;;;;4.53;3.67;;;;;;;-6.77;76.17;99876.47;5075406;28;20521;-55
2022/01/03 03:49:23;;;;;;;3.25;2.95;;;;;;;-6.95;75.73;99848.88;5075239;28;20080;-56
2022/01/03 03:51:49;;;;;;;4.60;3.10;;;;;;;-7.04;76.18;99857.09;5075367;28;20037;-57
2022/01/03 03:54:14;;;;;;;4.30;3.47;;;;;;;-7.11;76.41;99846.22;5075305;28;20466;-54
2022/01/03 03:56:40;;;;;;;7.67;3.70;;;;;;;-7.07;76.44;99852.91;5076620;28;20033;-53
2022/01/03 03:59:05;;;;;;;3.40;2.80;;;;;;;-7.12;76.46;99854.91;5075205;28;20071;-55
2022/01/03 04:01:31;;;;;;;5.97;3.33;;;;;;;-7.16;77.02;99843.03;5075095;28;20033;-58
2022/01/03 04:03:56;;;;;;;3.93;3.03;;;;;;;-7.12;77.13;99847.13;5075076;28;20040;-56
2022/01/03 04:06:22;;;;;;;4.03;3.30;;;;;;;-7.08;77.13;99853.00;5075121;28;20391;-59
2022/01/03 04:08:48;;;;;;;3.40;3.07;;;;;;;-7.14;76.94;99841.19;5075180;28;20657;-57
2022/01/03 04:11:14;;;;;;;4.15;3.30;;;;;;;-7.05;76.78;99855.44;5075954;28;20036;-54
2022/01/03 04:13:40;;;;;;;3.93;3.13;;;;;;;-7.12;76.84;99839.38;5074885;28;20102;-56
2022/01/03 04:16:06;;;;;;;3.90;3.60;;;;;;;-7.15;76.80;99838.69;5074761;28;20028;-55
2022/01/03 04:18:32;;;;;;;5.07;3.13;;;;;;;-7.02;77.12;99845.75;5074787;28;20131;-56
2022/01/03 04:20:58;;;;;;;3.73;3.20;;;;;;;-6.84;76.33;99854.41;5075504;28;20071;-58
2022/01/03 04:23:23;;;;;;;3.80;2.95;;;;;;;-6.90;75.56;99845.19;5074913;28;20487;-60
2022/01/03 04:25:51;;;;;;;4.43;3.60;;;;;;;-6.84;75.98;99845.78;5075394;28;20046;-59
2022/01/03 04:28:17;;;;;;;6.47;4.07;;;;;;;-6.91;75.59;99840.09;5074654;28;20036;-55
2022/01/03 04:30:43;;;;;;;5.97;3.00;;;;;;;-6.91;75.36;99855.63;5074770;28;20054;-59
2022/01/03 04:33:08;;;;;;;4.33;3.37;;;;;;;-7.02;76.18;99840.59;5074798;28;20484;-56
2022/01/03 04:35:34;;;;;;;3.60;3.20;;;;;;;-6.90;75.92;99849.53;5074948;28;20040;-57
2022/01/03 04:37:59;;;;;;;3.97;2.83;;;;;;;-6.84;75.49;99838.88;5074683;28;20036;-58
2022/01/03 04:40:25;;;;;;;3.80;3.30;;;;;;;-6.87;75.19;99833.84;5075041;28;20024;-55
2022/01/03 04:42:51;;;;;;;3.90;3.60;;;;;;;-7.03;75.65;99818.22;5073996;28;20036;-58
2022/01/03 04:45:18;;;;;;;4.45;3.60;;;;;;;-6.92;75.29;99835.81;5074080;28;20128;-58
2022/01/03 04:47:44;;;;;;;3.22;2.63;;;;;;;-6.97;75.42;99819.66;5074151;28;20131;-60
2022/01/03 04:50:10;;;;;;;4.05;3.30;;;;;;;-6.99;75.64;99800.78;5074376;28;20055;-58
2022/01/03 04:52:35;;;;;;;3.20;2.87;;;;;;;-6.93;75.63;99795.31;5074001;28;20468;-56
2022/01/03 04:55:01;;;;;;;3.10;2.80;;;;;;;-6.77;75.07;99808.31;5074040;28;20044;-55
2022/01/03 04:57:27;;;;;;;3.70;3.33;;;;;;;-6.92;75.45;99776.28;5074662;28;20578;-58
2022/01/03 04:59:53;;;;;;;3.63;3.33;;;;;;;-6.85;75.60;99789.75;5074144;28;20506;-61
2022/01/03 05:02:18;;;;;;;4.30;2.93;;;;;;;-6.80;75.75;99786.00;5073809;28;20274;-58
2022/01/03 05:04:44;;;;;;;3.40;3.10;;;;;;;-6.78;75.54;99786.78;5073983;28;20033;-60
2022/01/03 05:07:09;;;;;;;4.40;3.40;;;;;;;-6.92;75.89;99768.53;5074131;28;20024;-56
2022/01/03 05:09:35;;;;;;;3.33;3.03;;;;;;;-6.86;75.98;99783.75;5073883;28;20040;-55
2022/01/03 05:12:01;;;;;;;5.70;3.50;;;;;;;-6.98;75.74;99773.97;5074694;28;20033;-54
2022/01/03 05:14:52;;;;;;;3.25;2.95;;;;;;;-6.98;75.23;99779.16;5073902;28;20094;-56
2022/01/03 05:17:17;;;;;;;4.83;3.23;;;;;;;-6.91;76.69;99775.38;5073783;28;20048;-60
2022/01/03 05:19:43;;;;;;;3.97;3.37;;;;;;;-6.85;75.98;99784.56;5073888;28;20028;-59
2022/01/03 05:22:08;;;;;;;3.13;2.93;;;;;;;-6.97;75.94;99765.31;5073698;28;20036;-59
2022/01/03 05:24:34;;;;;;;4.23;3.87;;;;;;;-6.88;75.83;99790.75;5073904;28;20035;-59
2022/01/03 05:27:05;;;;;;;3.20;3.00;;;;;;;-7.02;75.90;99762.13;5074404;28;20028;-58
2022/01/03 05:29:31;;;;;;;6.00;4.20;;;;;;;-6.99;76.65;99775.72;5073624;28;20039;-60
2022/01/03 05:31:57;;;;;;;5.03;3.42;;;;;;;-6.92;76.59;99782.31;5073711;28;20047;-57
2022/01/03 05:34:22;;;;;;;4.17;3.77;;;;;;;-6.89;76.30;99792.50;5073561;28;20372;-59
2022/01/03 05:36:48;;;;;;;3.60;3.30;;;;;;;-6.93;76.05;99787.56;5072121;28;20032;-54
2022/01/03 05:39:14;;;;;;;3.50;2.90;;;;;;;-7.00;76.26;99770.63;5073487;28;20036;-54
2022/01/03 05:41:40;;;;;;;5.28;3.50;;;;;;;-6.92;76.72;99794.41;5073824;28;20060;-56
2022/01/03 05:44:07;;;;;;;4.22;3.30;;;;;;;-7.02;76.67;99769.88;5073139;28;20045;-57
2022/01/03 05:46:34;;;;;;;8.02;2.97;;;;;;;-7.00;76.80;99781.81;5072969;28;20423;-58
2022/01/03 05:49:00;;;;;;;6.75;5.38;;;;;;;-7.03;76.87;99775.97;5073040;28;20135;-59
2022/01/03 05:51:26;;;;;;;4.13;3.77;;;;;;;-6.94;77.07;99775.50;5073276;28;20085;-56
2022/01/03 05:53:53;;;;;;;4.85;3.63;;;;;;;-6.90;76.64;99771.88;5073053;28;20305;-61
2022/01/03 05:56:19;;;;;;;3.40;3.10;;;;;;;-6.77;76.13;99772.91;5073172;28;20045;-59
2022/01/03 05:58:45;;;;;;;6.93;4.57;;;;;;;-6.69;75.74;99783.72;5073337;28;20028;-57
2022/01/03 06:01:11;;;;;;;5.07;3.27;;;;;;;-6.77;75.49;99767.72;5073061;28;20043;-57
2022/01/03 06:03:39;;;;;;;6.10;3.63;;;;;;;-6.79;75.87;99781.69;5072968;28;20373;-55
2022/01/03 06:06:19;;;;;;;5.40;3.50;;;;;;;-6.80;76.37;99778.25;5072190;28;20039;-58
2022/01/03 06:08:45;;;;;;;3.72;3.10;;;;;;;-6.86;76.22;99768.22;5072877;28;20033;-59
2022/01/03 06:11:10;;;;;;;5.10;3.80;;;;;;;-6.87;76.35;99771.72;5073169;28;20039;-59
2022/01/03 06:13:36;;;;;;;5.43;3.83;;;;;;;-6.88;75.99;99764.88;5072990;28;20037;-56
2022/01/03 06:16:02;;;;;;;3.87;3.10;;;;;;;-6.89;76.24;99763.19;5072779;28;20522;-55
2022/01/03 06:18:27;;;;;;;4.23;3.50;;;;;;;-6.90;76.29;99762.34;5072621;28;20029;-56
2022/01/03 06:20:54;;;;;;;4.40;3.33;;;;;;;-6.97;75.98;99754.94;5072516;28;20036;-55
2022/01/03 06:23:20;;;;;;;4.65;4.15;;;;;;;-6.93;76.33;99762.50;5071332;28;20032;-61
2022/01/03 06:25:47;;;;;;;4.75;3.95;;;;;;;-6.88;76.88;99764.88;5072391;28;20082;-59
2022/01/03 06:28:12;;;;;;;3.83;3.53;;;;;;;-6.93;76.43;99756.50;5073439;28;20036;-61
2022/01/03 06:30:40;;;;;;;6.13;3.90;;;;;;;-6.89;76.71;99768.38;5072436;28;20041;-57
2022/01/03 06:33:07;;;;;;;5.00;4.47;;;;;;;-6.84;76.63;99763.78;5072412;28;20051;-58
2022/01/03 06:35:33;;;;;;;6.28;3.70;;;;;;;-6.86;76.63;99763.03;5072288;28;20072;-55
2022/01/03 06:37:59;;;;;;;7.63;4.37;;;;;;;-6.88;76.87;99762.28;5072025;28;20075;-55
2022/01/03 06:40:25;;;;;;;4.50;4.00;;;;;;;-6.84;77.04;99768.13;5070915;28;20520;-54
2022/01/03 06:42:52;;;;;;;3.60;3.20;;;;;;;-6.85;76.60;99763.88;5073769;28;20032;-59
2022/01/03 06:45:19;;;;;;;4.55;3.65;;;;;;;-6.94;77.18;99750.47;5072047;28;20040;-58
2022/01/03 06:47:47;;;;;;;14.32;7.50;;;;;;;-6.90;77.23;99766.69;5072006;28;20404;-57
2022/01/03 06:50:13;;;;;;;4.22;3.50;;;;;;;-7.03;77.93;99740.56;5071917;28;20048;-59
2022/01/03 06:52:38;;;;;;;4.27;3.83;;;;;;;-6.85;77.72;99769.03;5071927;28;20028;-59
2022/01/03 06:55:05;;;;;;;3.30;3.00;;;;;;;-6.85;77.08;99759.53;5073680;28;20040;-59
2022/01/03 06:57:32;;;;;;;4.43;3.20;;;;;;;-6.90;77.44;99756.34;5074370;28;20039;-57
2022/01/03 06:59:58;;;;;;;6.85;4.47;;;;;;;-6.86;76.98;99773.38;5073707;28;20028;-53
2022/01/03 07:02:23;;;;;;;6.47;4.20;;;;;;;-6.82;77.03;99779.25;5071924;28;20033;-56
2022/01/03 07:04:49;;;;;;;5.47;3.87;;;;;;;-6.87;77.22;99771.72;5072062;28;20043;-58
2022/01/03 07:07:15;;;;;;;5.53;3.95;;;;;;;-6.80;77.05;99767.91;5072130;28;20193;-54
2022/01/03 07:09:41;;;;;;;4.80;3.47;;;;;;;-6.85;77.33;99780.25;5071967;28;20048;-58
2022/01/03 07:12:07;;;;;;;4.27;3.43;;;;;;;-6.94;77.20;99766.00;5072571;28;20037;-57
2022/01/03 07:19:48;;;;;;;4.72;3.83;;;;;;;-6.88;77.73;99765.69;5072806;28;20032;-61
2022/01/03 07:22:14;;;;;;;5.18;4.28;;;;;;;-6.74;76.97;99793.47;5071729;28;20442;-53
2022/01/03 07:24:40;;;;;;;4.77;3.50;;;;;;;-6.91;77.04;99783.13;5072088;28;20040;-57
2022/01/03 07:27:09;;;;;;;3.72;3.42;;;;;;;-6.88;77.10;99783.81;5071015;28;20036;-60
2022/01/03 07:29:35;;;;;;;5.50;3.20;;;;;;;-7.00;77.27;99749.94;5071955;28;20134;-58
2022/01/03 07:32:01;;;;;;;4.73;3.53;;;;;;;-6.72;76.73;99776.09;5071540;28;20536;-57
2022/01/03 07:34:27;;;;;;;5.00;3.65;;;;;;;-7.33;76.61;99680.84;5071724;28;20047;-58
2022/01/03 07:36:53;;;;;;;4.18;3.83;;;;;;;-6.77;76.61;99777.25;5071673;28;20393;-60
2022/01/03 07:39:19;;;;;;;3.53;3.23;;;;;;;-6.71;76.60;99788.13;5071810;28;20044;-60
2022/01/03 07:41:44;;;;;;;3.23;2.93;;;;;;;-6.68;76.93;99772.44;5071822;28;20029;-58
2022/01/03 07:44:10;;;;;;;3.77;3.40;;;;;;;-6.58;76.30;99786.59;5072262;28;20032;-60
2022/01/03 07:46:36;;;;;;;4.10;3.73;;;;;;;-6.67;76.27;99771.53;5070033;28;20152;-55
2022/01/03 07:49:03;;;;;;;4.40;3.63;;;;;;;-6.74;76.36;99767.56;5071195;28;20106;-60
2022/01/03 07:51:29;;;;;;;4.88;4.03;;;;;;;-6.65;76.69;99772.31;5071565;28;20039;-55
2022/01/03 07:53:54;;;;;;;4.23;3.50;;;;;;;-6.54;76.64;99763.13;5071698;28;20033;-59
2022/01/03 07:56:20;;;;;;;4.97;4.07;;;;;;;-6.47;75.88;99759.31;5071446;28;20123;-56
2022/01/03 07:58:46;;;;;;;5.87;4.33;;;;;;;-6.32;76.11;99784.44;5071778;28;20043;-59
2022/01/03 08:01:12;;;;;;;3.67;3.17;;;;;;;-6.50;75.67;99765.50;5071336;28;20500;-57
2022/01/03 08:03:37;;;;;;;4.63;3.73;;;;;;;-6.44;75.76;99777.28;5071127;28;20089;-57
2022/01/03 08:06:04;;;;;;;3.53;3.20;;;;;;;-6.47;75.46;99769.66;5071202;28;20036;-56
2022/01/03 08:08:30;;;;;;;5.57;4.22;;;;;;;-6.43;75.49;99777.19;5071140;28;20063;-58
2022/01/03 08:10:55;;;;;;;4.90;3.67;;;;;;;-6.50;75.97;99762.06;5071196;28;20500;-52
2022/01/03 08:13:21;;;;;;;6.43;4.50;;;;;;;-7.04;75.43;99665.59;5071630;28;20025;-59
2022/01/03 08:15:46;;;;;;;4.87;3.53;;;;;;;-6.42;75.12;99762.50;5071199;28;20037;-59
2022/01/03 08:18:13;;;;;;;4.32;3.08;;;;;;;-6.61;75.79;99740.16;5071044;28;20043;-60
2022/01/03 08:20:39;;;;;;;4.40;3.90;;;;;;;-6.45;75.88;99765.25;5071395;28;20466;-55
2022/01/03 08:23:05;;;;;;;3.83;3.50;;;;;;;-6.50;75.88;99762.06;5071354;28;20135;-58
2022/01/03 08:25:36;;;;;;;4.97;4.03;;;;;;;-6.58;76.18;99755.53;5071947;28;20075;-60
2022/01/03 08:28:05;;;;;;;6.72;3.58;;;;;;;-6.44;75.83;99769.50;5072754;28;20039;-57
2022/01/03 08:30:31;;;;;;;;;;;;;;;-6.30;75.62;99783.44;5073912;28;20047;-58
2022/01/03 08:32:57;;;;;;;4.37;3.40;;;;;;;-6.28;75.00;99760.03;5074954;28;19916;-59
2022/01/03 08:35:24;;;;;;;5.37;4.10;;;;;;;-6.32;75.40;99771.47;5074859;28;20035;-56
2022/01/03 08:37:50;;;;;;;7.53;5.70;;;;;;;-6.36;75.54;99775.97;5074836;28;20063;-60
2022/01/03 08:40:16;;;;;;;7.00;4.85;;;;;;;-6.35;74.96;99776.81;5074865;28;20036;-59
2022/01/03 08:42:41;;;;;;;6.93;4.70;;;;;;;-6.33;75.35;99782.75;5075101;28;20491;-57
2022/01/03 08:45:09;;;;;;;5.23;4.67;;;;;;;-6.37;74.68;99761.31;5074609;28;20033;-60
2022/01/03 08:47:35;;;;;;;6.53;4.25;;;;;;;-6.40;75.52;99771.84;5074410;28;20036;-56
2022/01/03 08:50:01;;;;;;;5.20;4.70;;;;;;;-6.29;75.19;99784.25;5074594;28;20385;-53
2022/01/03 08:52:28;;;;;;;5.78;3.80;;;;;;;-6.23;74.49;99783.09;5074608;28;20270;-61
2022/01/03 08:54:53;;;;;;;5.87;3.87;;;;;;;-6.44;74.45;99753.97;5074502;28;20411;-62
2022/01/03 08:57:21;;;;;;;5.83;4.50;;;;;;;-6.28;74.44;99780.75;5074445;28;20491;-52
2022/01/03 08:59:47;;;;;;;5.70;4.35;;;;;;;-6.44;75.49;99748.78;5074617;28;20105;-57
2022/01/03 09:02:13;;;;;;;5.57;4.55;;;;;;;-6.27;74.89;99764.28;5074250;28;20036;-60
2022/01/03 09:04:39;;;;;;;5.10;4.27;;;;;;;-6.25;74.79;99770.22;5074297;28;20062;-58
2022/01/03 09:07:05;;;;;;;6.13;4.22;;;;;;;-6.17;75.12;99767.22;5074361;28;20060;-63
2022/01/03 09:09:32;;;;;;;4.10;3.70;;;;;;;-6.09;74.65;99771.06;5073969;28;20459;-56
2022/01/03 09:11:58;;;;;;;4.43;4.00;;;;;;;-5.99;73.98;99777.47;5074034;28;20024;-57
2022/01/03 09:14:23;;;;;;;10.20;3.97;;;;;;;-6.17;74.30;99756.84;5074355;28;20036;-58
2022/01/03 09:16:49;;;;;;;5.63;3.73;;;;;;;-6.32;74.69;99743.81;5074170;28;20078;-57
2022/01/03 09:19:20;;;;;;;4.45;3.75;;;;;;;-6.18;74.04;99761.19;5074038;28;20113;-59
2022/01/03 09:21:46;;;;;;;5.40;3.70;;;;;;;-6.13;74.52;99764.38;5074038;28;20496;-59
2022/01/03 09:29:27;;;;;;;5.05;3.88;;;;;;;-6.11;74.09;99752.19;5074017;28;20036;-60
2022/01/03 09:31:52;;;;;;;7.20;5.07;;;;;;;-6.19;74.98;99733.63;5073898;28;20074;-59
2022/01/03 09:34:18;;;;;;;5.23;4.73;;;;;;;-6.11;75.01;99746.16;5073934;28;20571;-60
2022/01/03 09:36:43;;;;;;;5.97;3.97;;;;;;;-6.23;75.04;99728.69;5073517;28;20074;-60
2022/01/03 09:39:09;;;;;;;7.90;5.83;;;;;;;-6.10;75.19;99743.47;5073463;28;20130;-58
2022/01/03 09:41:43;;;;;;;8.77;5.70;;;;;;;-6.19;75.34;99728.44;5072292;28;20117;-55
2022/01/03 09:44:11;;;;;;;8.88;5.85;;;;;;;-6.12;75.34;99744.47;5074123;28;20040;-58
2022/01/03 09:46:42;;;;;;;7.75;3.90;;;;;;;-6.19;74.92;99730.19;5073301;28;20131;-60
2022/01/03 09:49:10;;;;;;;9.00;5.88;;;;;;;-6.16;75.70;99742.97;5073508;28;20094;-59
2022/01/03 09:51:37;;;;;;;6.10;5.32;;;;;;;-6.22;74.69;99740.72;5073474;28;20511;-57
2022/01/03 09:54:05;;;;;;;7.22;4.82;;;;;;;-6.21;75.46;99729.44;5072935;28;20024;-59
2022/01/03 09:56:33;;;;;;;11.50;5.85;;;;;;;-6.12;75.48;99745.31;5072803;28;20048;-62
2022/01/03 09:59:00;;;;;;;6.65;4.32;;;;;;;-6.07;75.78;99753.72;5073270;28;20063;-59
2022/01/03 10:01:27;;;;;;;9.85;4.65;;;;;;;-6.00;75.03;99738.66;5072861;28;20040;-56
2022/01/03 10:03:53;;;;;;;5.32;4.75;;;;;;;-5.91;74.56;99747.69;5073432;28;20093;-58
2022/01/03 10:06:20;;;;;;;4.97;3.90;;;;;;;-6.03;75.32;99738.81;5072916;28;20040;-56
2022/01/03 10:08:47;;;;;;;4.47;4.05;;;;;;;-5.98;75.48;99737.66;5072592;28;20047;-59
2022/01/03 10:11:14;;;;;;;7.18;4.53;;;;;;;-5.97;74.60;99741.91;5073154;28;20036;-61
2022/01/03 10:13:40;;;;;;;3.97;3.67;;;;;;;-6.05;74.75;99725.94;5073529;28;20040;-61
2022/01/03 10:16:06;;;;;;;4.53;4.13;;;;;;;-6.18;75.10;99691.22;5073147;28;20033;-59
2022/01/03 10:18:33;;;;;;;5.00;3.97;;;;;;;-5.89;75.24;99720.72;5072971;28;20039;-57
2022/01/03 10:21:04;;;;;;;8.43;4.40;;;;;;;-5.81;74.55;99717.69;5072636;28;20186;-60
2022/01/03 10:23:29;;;;;;;5.22;3.85;;;;;;;-5.76;74.41;99715.72;5073006;28;20049;-58
2022/01/03 10:26:15;;;;;;;7.67;3.63;;;;;;;-5.89;74.96;99686.22;5072851;28;20044;-57
2022/01/03 10:28:40;;;;;;;4.60;3.60;;;;;;;-5.77;74.10;99714.88;5072984;28;20037;-58
2022/01/03 10:31:16;;;;;;;7.50;4.20;;;;;;;-5.72;73.99;99727.56;5072802;28;20064;-57
2022/01/03 10:33:41;;;;;;;5.82;3.60;;;;;;;-5.91;74.83;99706.19;5072419;28;20089;-58
2022/01/03 10:36:11;;;;;;;7.10;3.63;;;;;;;-5.84;75.07;99715.28;5054967;28;20132;-57
2022/01/03 10:38:43;;;;;;;6.72;3.60;;;;;;;-5.84;74.97;99717.88;5072483;28;20044;-59
2022/01/03 10:41:18;;;;;;;7.40;3.97;;;;;;;-5.80;75.17;99727.13;5072494;28;20381;-56
2022/01/03 10:43:48;;;;;;;8.07;4.32;;;;;;;-5.87;75.13;99712.84;5072991;28;20036;-58
2022/01/03 10:46:26;;;;;;;6.28;4.35;;;;;;;-5.90;75.44;99705.28;5072514;28;20147;-59
2022/01/03 10:48:55;;;;;;;8.32;4.47;;;;;;;-5.92;74.67;99700.19;5073096;28;20040;-59
2022/01/03 10:51:24;;;;;;;7.93;4.88;;;;;;;-5.90;75.93;99723.44;5072951;28;20036;-61
2022/01/03 10:53:51;;;;;;;7.57;4.60;;;;;;;-5.97;75.33;99709.97;5073011;28;20101;-61
2022/01/03 10:56:24;;;;;;;9.45;5.13;;;;;;;-5.91;75.25;99716.56;5071865;28;20036;-60
2022/01/03 10:59:24;;;;;;;6.82;4.47;;;;;;;-5.84;75.44;99712.69;5072692;28;20067;-59
2022/01/03 11:02:00;;;;;;;7.60;5.20;;;;;;;-5.76;75.31;99716.53;5060038;28;20078;-59
2022/01/03 11:04:28;;;;;;;8.65;6.47;;;;;;;-5.88;75.15;99704.25;5070849;28;20040;-59
2022/01/03 11:13:22;;;;;;;10.48;6.25;;;;;;;-5.89;75.45;99692.19;5073020;28;20407;-61
2022/01/03 11:16:05;;;;;;;8.20;5.72;;;;;;;-5.86;75.99;99706.75;5072572;28;20483;-59
2022/01/03 11:18:33;;;;;;;6.97;4.80;;;;;;;-5.99;76.89;99689.31;5071881;28;20123;-53
2022/01/03 11:21:11;;;;;;;8.85;5.28;;;;;;;-5.99;76.30;99704.88;5071973;28;20039;-60
2022/01/03 11:24:00;;;;;;;5.72;4.90;;;;;;;-6.15;77.12;99692.81;5072357;28;20052;-61
2022/01/03 11:26:27;;;;;;;14.50;6.32;;;;;;;-6.22;77.33;99689.72;5071695;28;20040;-56
2022/01/03 11:28:53;;;;;;;6.55;4.03;;;;;;;-6.43;77.90;99662.38;5072663;28;20563;-60
2022/01/03 11:31:20;;;;;;;8.10;4.10;;;;;;;-6.30;78.15;99686.72;5072688;28;20064;-54
2022/01/03 11:33:48;;;;;;;5.22;4.10;;;;;;;-6.32;77.89;99692.00;5071943;28;20369;-58
2022/01/03 11:36:16;;;;;;;5.13;4.60;;;;;;;-6.28;77.99;99692.66;5071860;28;20052;-57
2022/01/03 11:38:44;;;;;;;5.97;4.20;;;;;;;-6.18;78.25;99698.16;5073050;28;20036;-55
2022/01/03 11:41:11;;;;;;;5.72;4.07;;;;;;;-6.20;77.37;99677.53;5073447;28;20052;-59
2022/01/03 11:43:39;;;;;;;6.68;4.75;;;;;;;-6.16;77.92;99684.22;5072908;28;20039;-57
2022/01/03 11:46:13;;;;;;;8.38;4.25;;;;;;;-6.09;77.33;99689.88;5072811;28;20137;-60
2022/01/03 11:49:03;;;;;;;5.88;4.97;;;;;;;-6.14;77.04;99679.78;5073073;28;20078;-56
2022/01/03 11:51:34;;;;;;;6.20;4.00;;;;;;;-6.24;76.78;99660.47;5071886;28;20032;-62
2022/01/03 11:54:02;;;;;;;7.95;4.65;;;;;;;-6.16;77.46;99686.81;5072288;28;20028;-62